sensor_id;sensor_type;location;lat;lon;timestamp;temperature;humidity
32394;DHT22;18853;45.426;9.206;2022-07-23T00:00:32;37.20;28.70
32394;DHT22;18853;45.426;9.206;2022-07-23T00:02:58;37.20;28.30
32394;DHT22;18853;45.426;9.206;2022-07-23T00:05:23;37.10;28.30
32394;DHT22;18853;45.426;9.206;2022-07-23T00:07:49;37.00;28.10
32394;DHT22;18853;45.426;9.206;2022-07-23T00:10:15;37.00;28.20
32394;DHT22;18853;45.426;9.206;2022-07-23T00:12:40;37.00;28.20
32394;DHT22;18853;45.426;9.206;2022-07-23T00:15:07;37.00;28.10
32394;DHT22;18853;45.426;9.206;2022-07-23T00:17:32;36.90;28.10
32394;DHT22;18853;45.426;9.206;2022-07-23T00:19:58;36.90;28.10
32394;DHT22;18853;45.426;9.206;2022-07-23T00:22:24;37.00;28.00
32394;DHT22;18853;45.426;9.206;2022-07-23T00:24:50;36.90;28.00
32394;DHT22;18853;45.426;9.206;2022-07-23T00:27:16;36.80;27.90
32394;DHT22;18853;45.426;9.206;2022-07-23T00:29:41;36.80;28.00
32394;DHT22;18853;45.426;9.206;2022-07-23T00:32:07;36.70;28.10
32394;DHT22;18853;45.426;9.206;2022-07-23T00:34:33;36.80;28.10
32394;DHT22;18853;45.426;9.206;2022-07-23T00:36:58;36.70;28.00
32394;DHT22;18853;45.426;9.206;2022-07-23T00:39:24;36.60;28.10
32394;DHT22;18853;45.426;9.206;2022-07-23T00:41:52;36.50;28.10
32394;DHT22;18853;45.426;9.206;2022-07-23T00:44:20;36.60;28.10
32394;DHT22;18853;45.426;9.206;2022-07-23T00:46:48;36.60;28.20
32394;DHT22;18853;45.426;9.206;2022-07-23T00:49:15;36.50;28.10
32394;DHT22;18853;45.426;9.206;2022-07-23T00:51:41;36.60;28.10
32394;DHT22;18853;45.426;9.206;2022-07-23T00:54:07;36.50;28.10
32394;DHT22;18853;45.426;9.206;2022-07-23T00:56:32;36.40;28.10
32394;DHT22;18853;45.426;9.206;2022-07-23T00:59:00;36.40;28.20
32394;DHT22;18853;45.426;9.206;2022-07-23T01:01:25;36.40;28.80
32394;DHT22;18853;45.426;9.206;2022-07-23T01:03:51;36.40;28.30
32394;DHT22;18853;45.426;9.206;2022-07-23T01:06:17;36.30;28.30
32394;DHT22;18853;45.426;9.206;2022-07-23T01:08:42;36.30;28.50
32394;DHT22;18853;45.426;9.206;2022-07-23T01:11:08;36.20;29.20
32394;DHT22;18853;45.426;9.206;2022-07-23T01:13:34;36.20;28.80
32394;DHT22;18853;45.426;9.206;2022-07-23T01:16:00;36.20;28.90
32394;DHT22;18853;45.426;9.206;2022-07-23T01:18:25;36.10;29.00
32394;DHT22;18853;45.426;9.206;2022-07-23T01:20:51;36.10;29.10
32394;DHT22;18853;45.426;9.206;2022-07-23T01:23:17;36.00;29.70
32394;DHT22;18853;45.426;9.206;2022-07-23T01:25:52;36.10;29.30
32394;DHT22;18853;45.426;9.206;2022-07-23T01:28:18;36.10;29.50
32394;DHT22;18853;45.426;9.206;2022-07-23T01:30:44;36.00;29.50
32394;DHT22;18853;45.426;9.206;2022-07-23T01:33:10;36.00;29.50
32394;DHT22;18853;45.426;9.206;2022-07-23T01:35:36;36.00;29.60
32394;DHT22;18853;45.426;9.206;2022-07-23T01:38:01;36.00;29.60
32394;DHT22;18853;45.426;9.206;2022-07-23T01:40:27;36.00;29.60
32394;DHT22;18853;45.426;9.206;2022-07-23T01:42:53;36.00;29.60
32394;DHT22;18853;45.426;9.206;2022-07-23T01:45:18;36.00;29.60
32394;DHT22;18853;45.426;9.206;2022-07-23T01:47:44;36.00;29.60
32394;DHT22;18853;45.426;9.206;2022-07-23T01:50:10;36.00;29.50
32394;DHT22;18853;45.426;9.206;2022-07-23T01:52:35;36.00;29.60
32394;DHT22;18853;45.426;9.206;2022-07-23T01:55:01;36.00;29.60
32394;DHT22;18853;45.426;9.206;2022-07-23T01:57:27;36.10;29.60
32394;DHT22;18853;45.426;9.206;2022-07-23T01:59:52;36.10;29.50
32394;DHT22;18853;45.426;9.206;2022-07-23T02:02:18;36.20;29.50
32394;DHT22;18853;45.426;9.206;2022-07-23T02:04:43;36.10;29.50
32394;DHT22;18853;45.426;9.206;2022-07-23T02:07:09;36.10;29.60
32394;DHT22;18853;45.426;9.206;2022-07-23T02:09:35;36.10;29.50
32394;DHT22;18853;45.426;9.206;2022-07-23T02:12:01;36.10;29.50
32394;DHT22;18853;45.426;9.206;2022-07-23T02:14:26;36.10;29.50
32394;DHT22;18853;45.426;9.206;2022-07-23T02:16:52;36.10;29.60
32394;DHT22;18853;45.426;9.206;2022-07-23T02:19:18;36.00;29.70
32394;DHT22;18853;45.426;9.206;2022-07-23T02:21:44;36.00;29.70
32394;DHT22;18853;45.426;9.206;2022-07-23T02:24:09;35.90;29.80
32394;DHT22;18853;45.426;9.206;2022-07-23T02:26:35;35.90;29.90
32394;DHT22;18853;45.426;9.206;2022-07-23T02:29:02;35.70;30.00
32394;DHT22;18853;45.426;9.206;2022-07-23T02:31:29;35.70;30.00
32394;DHT22;18853;45.426;9.206;2022-07-23T02:33:54;35.80;29.90
32394;DHT22;18853;45.426;9.206;2022-07-23T02:36:21;35.80;29.90
32394;DHT22;18853;45.426;9.206;2022-07-23T02:38:46;35.70;30.50
32394;DHT22;18853;45.426;9.206;2022-07-23T02:41:12;35.50;30.20
32394;DHT22;18853;45.426;9.206;2022-07-23T02:43:38;35.50;30.70
32394;DHT22;18853;45.426;9.206;2022-07-23T02:46:04;35.30;31.00
32394;DHT22;18853;45.426;9.206;2022-07-23T02:48:30;35.20;31.30
32394;DHT22;18853;45.426;9.206;2022-07-23T02:50:55;35.20;31.60
32394;DHT22;18853;45.426;9.206;2022-07-23T02:53:22;35.00;31.80
32394;DHT22;18853;45.426;9.206;2022-07-23T02:55:48;34.90;31.90
32394;DHT22;18853;45.426;9.206;2022-07-23T02:58:14;34.80;32.30
32394;DHT22;18853;45.426;9.206;2022-07-23T03:00:41;34.80;32.60
32394;DHT22;18853;45.426;9.206;2022-07-23T03:03:07;34.60;33.20
32394;DHT22;18853;45.426;9.206;2022-07-23T03:05:33;34.60;32.90
32394;DHT22;18853;45.426;9.206;2022-07-23T03:07:59;34.50;32.90
32394;DHT22;18853;45.426;9.206;2022-07-23T03:10:24;34.50;33.20
32394;DHT22;18853;45.426;9.206;2022-07-23T03:12:50;34.50;33.40
32394;DHT22;18853;45.426;9.206;2022-07-23T03:15:15;34.40;33.40
32394;DHT22;18853;45.426;9.206;2022-07-23T03:17:41;34.30;33.40
32394;DHT22;18853;45.426;9.206;2022-07-23T03:20:07;34.30;33.70
32394;DHT22;18853;45.426;9.206;2022-07-23T03:22:33;34.30;33.70
32394;DHT22;18853;45.426;9.206;2022-07-23T03:24:59;34.30;33.50
32394;DHT22;18853;45.426;9.206;2022-07-23T03:27:26;34.30;33.30
32394;DHT22;18853;45.426;9.206;2022-07-23T03:29:53;34.30;33.30
32394;DHT22;18853;45.426;9.206;2022-07-23T03:32:19;34.30;33.40
32394;DHT22;18853;45.426;9.206;2022-07-23T03:34:45;34.30;33.20
32394;DHT22;18853;45.426;9.206;2022-07-23T03:37:11;34.40;32.60
32394;DHT22;18853;45.426;9.206;2022-07-23T03:39:37;34.60;32.50
32394;DHT22;18853;45.426;9.206;2022-07-23T03:42:03;34.70;32.30
32394;DHT22;18853;45.426;9.206;2022-07-23T03:44:29;34.70;32.30
32394;DHT22;18853;45.426;9.206;2022-07-23T03:46:54;34.70;32.20
32394;DHT22;18853;45.426;9.206;2022-07-23T03:49:20;34.70;32.20
32394;DHT22;18853;45.426;9.206;2022-07-23T03:51:46;34.70;32.40
32394;DHT22;18853;45.426;9.206;2022-07-23T03:54:11;34.60;32.50
32394;DHT22;18853;45.426;9.206;2022-07-23T03:56:37;34.60;32.50
32394;DHT22;18853;45.426;9.206;2022-07-23T03:59:03;34.60;32.60
32394;DHT22;18853;45.426;9.206;2022-07-23T04:01:28;34.60;32.50
32394;DHT22;18853;45.426;9.206;2022-07-23T04:03:54;34.60;32.20
32394;DHT22;18853;45.426;9.206;2022-07-23T04:06:20;34.70;32.30
32394;DHT22;18853;45.426;9.206;2022-07-23T04:08:45;34.60;32.40
32394;DHT22;18853;45.426;9.206;2022-07-23T04:11:11;34.60;32.60
32394;DHT22;18853;45.426;9.206;2022-07-23T04:13:37;34.50;32.80
32394;DHT22;18853;45.426;9.206;2022-07-23T04:16:02;34.50;32.70
32394;DHT22;18853;45.426;9.206;2022-07-23T04:18:29;34.40;32.70
32394;DHT22;18853;45.426;9.206;2022-07-23T04:20:55;34.50;32.60
32394;DHT22;18853;45.426;9.206;2022-07-23T04:23:20;34.60;32.90
32394;DHT22;18853;45.426;9.206;2022-07-23T04:25:46;34.60;33.00
32394;DHT22;18853;45.426;9.206;2022-07-23T04:28:11;34.60;33.20
32394;DHT22;18853;45.426;9.206;2022-07-23T04:30:37;34.60;33.30
32394;DHT22;18853;45.426;9.206;2022-07-23T04:33:03;34.60;33.40
32394;DHT22;18853;45.426;9.206;2022-07-23T04:35:32;34.60;33.50
32394;DHT22;18853;45.426;9.206;2022-07-23T04:37:58;34.70;33.50
32394;DHT22;18853;45.426;9.206;2022-07-23T04:40:23;34.80;33.50
32394;DHT22;18853;45.426;9.206;2022-07-23T04:42:49;34.70;33.60
32394;DHT22;18853;45.426;9.206;2022-07-23T04:45:14;34.80;33.70
32394;DHT22;18853;45.426;9.206;2022-07-23T04:47:40;34.70;33.70
32394;DHT22;18853;45.426;9.206;2022-07-23T04:50:06;34.70;34.40
32394;DHT22;18853;45.426;9.206;2022-07-23T04:52:31;34.60;33.80
32394;DHT22;18853;45.426;9.206;2022-07-23T04:54:57;34.60;33.80
32394;DHT22;18853;45.426;9.206;2022-07-23T04:57:23;34.70;33.80
32394;DHT22;18853;45.426;9.206;2022-07-23T04:59:48;34.70;33.80
32394;DHT22;18853;45.426;9.206;2022-07-23T05:02:14;34.70;33.80
32394;DHT22;18853;45.426;9.206;2022-07-23T05:04:39;34.60;33.90
32394;DHT22;18853;45.426;9.206;2022-07-23T05:07:05;34.60;34.00
32394;DHT22;18853;45.426;9.206;2022-07-23T05:09:30;34.60;34.00
32394;DHT22;18853;45.426;9.206;2022-07-23T05:11:57;34.60;34.10
32394;DHT22;18853;45.426;9.206;2022-07-23T05:14:23;34.60;34.10
32394;DHT22;18853;45.426;9.206;2022-07-23T05:16:48;34.60;34.20
32394;DHT22;18853;45.426;9.206;2022-07-23T05:19:14;34.50;34.10
32394;DHT22;18853;45.426;9.206;2022-07-23T05:21:39;34.60;34.10
32394;DHT22;18853;45.426;9.206;2022-07-23T05:24:05;34.40;34.20
32394;DHT22;18853;45.426;9.206;2022-07-23T05:26:31;34.40;34.40
32394;DHT22;18853;45.426;9.206;2022-07-23T05:28:57;34.40;34.40
32394;DHT22;18853;45.426;9.206;2022-07-23T05:31:22;34.40;34.40
32394;DHT22;18853;45.426;9.206;2022-07-23T05:33:48;34.40;34.40
32394;DHT22;18853;45.426;9.206;2022-07-23T05:36:14;34.40;34.50
32394;DHT22;18853;45.426;9.206;2022-07-23T05:38:39;34.40;34.40
32394;DHT22;18853;45.426;9.206;2022-07-23T05:41:05;34.40;35.10
32394;DHT22;18853;45.426;9.206;2022-07-23T05:43:30;34.40;34.70
32394;DHT22;18853;45.426;9.206;2022-07-23T05:45:56;34.30;34.90
32394;DHT22;18853;45.426;9.206;2022-07-23T05:48:22;34.30;35.10
32394;DHT22;18853;45.426;9.206;2022-07-23T05:50:48;34.20;35.10
32394;DHT22;18853;45.426;9.206;2022-07-23T05:53:13;34.20;35.30
32394;DHT22;18853;45.426;9.206;2022-07-23T05:55:39;34.10;35.30
32394;DHT22;18853;45.426;9.206;2022-07-23T05:58:05;34.10;35.20
32394;DHT22;18853;45.426;9.206;2022-07-23T06:00:30;34.10;34.80
32394;DHT22;18853;45.426;9.206;2022-07-23T06:02:56;34.20;34.40
32394;DHT22;18853;45.426;9.206;2022-07-23T06:05:22;34.20;34.10
32394;DHT22;18853;45.426;9.206;2022-07-23T06:07:48;34.30;33.90
32394;DHT22;18853;45.426;9.206;2022-07-23T06:10:13;34.30;33.70
32394;DHT22;18853;45.426;9.206;2022-07-23T06:12:39;34.30;33.40
32394;DHT22;18853;45.426;9.206;2022-07-23T06:15:05;34.30;33.30
32394;DHT22;18853;45.426;9.206;2022-07-23T06:17:31;34.30;33.20
32394;DHT22;18853;45.426;9.206;2022-07-23T06:19:56;34.40;33.10
32394;DHT22;18853;45.426;9.206;2022-07-23T06:22:22;34.50;33.30
32394;DHT22;18853;45.426;9.206;2022-07-23T06:24:49;34.50;33.10
32394;DHT22;18853;45.426;9.206;2022-07-23T06:27:14;34.50;33.00
32394;DHT22;18853;45.426;9.206;2022-07-23T06:29:40;34.50;32.90
32394;DHT22;18853;45.426;9.206;2022-07-23T06:32:06;34.50;32.90
32394;DHT22;18853;45.426;9.206;2022-07-23T06:34:32;34.50;33.00
32394;DHT22;18853;45.426;9.206;2022-07-23T06:36:58;34.60;33.10
32394;DHT22;18853;45.426;9.206;2022-07-23T06:39:24;34.60;33.00
32394;DHT22;18853;45.426;9.206;2022-07-23T06:41:50;34.60;33.10
32394;DHT22;18853;45.426;9.206;2022-07-23T06:44:16;34.70;32.60
32394;DHT22;18853;45.426;9.206;2022-07-23T06:46:41;34.60;32.50
32394;DHT22;18853;45.426;9.206;2022-07-23T06:49:07;34.70;32.80
32394;DHT22;18853;45.426;9.206;2022-07-23T06:51:33;34.70;32.70
32394;DHT22;18853;45.426;9.206;2022-07-23T06:53:59;34.70;32.40
32394;DHT22;18853;45.426;9.206;2022-07-23T06:56:24;34.70;32.60
32394;DHT22;18853;45.426;9.206;2022-07-23T06:58:50;34.70;33.40
32394;DHT22;18853;45.426;9.206;2022-07-23T07:01:16;34.70;33.50
32394;DHT22;18853;45.426;9.206;2022-07-23T07:03:41;34.70;33.70
32394;DHT22;18853;45.426;9.206;2022-07-23T07:06:07;34.70;33.70
32394;DHT22;18853;45.426;9.206;2022-07-23T07:08:33;34.60;33.80
32394;DHT22;18853;45.426;9.206;2022-07-23T07:10:58;34.60;34.10
32394;DHT22;18853;45.426;9.206;2022-07-23T07:13:24;34.60;34.10
32394;DHT22;18853;45.426;9.206;2022-07-23T07:15:50;34.60;34.10
32394;DHT22;18853;45.426;9.206;2022-07-23T07:18:15;34.50;34.10
32394;DHT22;18853;45.426;9.206;2022-07-23T07:20:41;34.50;34.10
32394;DHT22;18853;45.426;9.206;2022-07-23T07:23:06;34.50;34.00
32394;DHT22;18853;45.426;9.206;2022-07-23T07:25:32;34.50;34.30
32394;DHT22;18853;45.426;9.206;2022-07-23T07:27:58;34.50;34.70
32394;DHT22;18853;45.426;9.206;2022-07-23T07:30:24;34.40;34.70
32394;DHT22;18853;45.426;9.206;2022-07-23T07:32:51;34.40;34.80
32394;DHT22;18853;45.426;9.206;2022-07-23T07:35:16;34.40;35.10
32394;DHT22;18853;45.426;9.206;2022-07-23T07:37:42;34.40;35.00
32394;DHT22;18853;45.426;9.206;2022-07-23T07:40:08;34.40;35.10
32394;DHT22;18853;45.426;9.206;2022-07-23T07:42:34;34.40;35.40
32394;DHT22;18853;45.426;9.206;2022-07-23T07:45:00;34.50;35.50
32394;DHT22;18853;45.426;9.206;2022-07-23T07:47:26;34.50;35.30
32394;DHT22;18853;45.426;9.206;2022-07-23T07:49:51;34.50;35.50
32394;DHT22;18853;45.426;9.206;2022-07-23T07:52:17;34.50;35.50
32394;DHT22;18853;45.426;9.206;2022-07-23T07:54:42;34.50;35.40
32394;DHT22;18853;45.426;9.206;2022-07-23T07:57:09;34.50;35.40
32394;DHT22;18853;45.426;9.206;2022-07-23T07:59:35;34.50;35.50
32394;DHT22;18853;45.426;9.206;2022-07-23T08:02:00;34.40;35.60
32394;DHT22;18853;45.426;9.206;2022-07-23T08:04:26;34.40;35.70
32394;DHT22;18853;45.426;9.206;2022-07-23T08:06:51;34.40;35.90
32394;DHT22;18853;45.426;9.206;2022-07-23T08:09:17;34.50;36.20
32394;DHT22;18853;45.426;9.206;2022-07-23T08:11:43;34.50;36.20
32394;DHT22;18853;45.426;9.206;2022-07-23T08:14:08;34.40;36.40
32394;DHT22;18853;45.426;9.206;2022-07-23T08:16:36;34.40;36.30
32394;DHT22;18853;45.426;9.206;2022-07-23T08:19:02;34.40;36.20
32394;DHT22;18853;45.426;9.206;2022-07-23T08:21:27;34.50;36.40
32394;DHT22;18853;45.426;9.206;2022-07-23T08:23:53;34.50;36.60
32394;DHT22;18853;45.426;9.206;2022-07-23T08:26:19;34.50;37.40
32394;DHT22;18853;45.426;9.206;2022-07-23T08:28:44;34.40;38.30
32394;DHT22;18853;45.426;9.206;2022-07-23T08:31:10;34.40;38.50
32394;DHT22;18853;45.426;9.206;2022-07-23T08:33:37;34.40;39.20
32394;DHT22;18853;45.426;9.206;2022-07-23T08:36:04;34.40;39.20
32394;DHT22;18853;45.426;9.206;2022-07-23T08:38:30;34.50;39.60
32394;DHT22;18853;45.426;9.206;2022-07-23T08:40:57;34.40;39.80
32394;DHT22;18853;45.426;9.206;2022-07-23T08:43:30;34.50;40.40
32394;DHT22;18853;45.426;9.206;2022-07-23T08:45:57;34.40;41.10
32394;DHT22;18853;45.426;9.206;2022-07-23T08:48:34;34.40;41.50
32394;DHT22;18853;45.426;9.206;2022-07-23T08:51:02;34.40;41.40
32394;DHT22;18853;45.426;9.206;2022-07-23T08:53:29;34.40;42.10
32394;DHT22;18853;45.426;9.206;2022-07-23T08:56:00;34.40;42.30
32394;DHT22;18853;45.426;9.206;2022-07-23T08:58:27;34.40;42.80
32394;DHT22;18853;45.426;9.206;2022-07-23T09:00:52;34.40;43.00
32394;DHT22;18853;45.426;9.206;2022-07-23T09:03:31;34.40;43.40
32394;DHT22;18853;45.426;9.206;2022-07-23T09:05:59;34.40;43.80
32394;DHT22;18853;45.426;9.206;2022-07-23T09:08:35;34.40;43.50
32394;DHT22;18853;45.426;9.206;2022-07-23T09:11:03;34.40;43.40
32394;DHT22;18853;45.426;9.206;2022-07-23T09:13:42;34.40;43.60
32394;DHT22;18853;45.426;9.206;2022-07-23T09:16:15;34.40;43.50
32394;DHT22;18853;45.426;9.206;2022-07-23T09:18:55;34.40;43.80
32394;DHT22;18853;45.426;9.206;2022-07-23T09:21:31;34.50;43.90
32394;DHT22;18853;45.426;9.206;2022-07-23T09:23:58;34.50;44.20
32394;DHT22;18853;45.426;9.206;2022-07-23T09:26:31;34.50;44.10
32394;DHT22;18853;45.426;9.206;2022-07-23T09:29:00;34.50;44.00
32394;DHT22;18853;45.426;9.206;2022-07-23T09:31:32;34.50;44.10
32394;DHT22;18853;45.426;9.206;2022-07-23T09:37:11;34.60;44.40
32394;DHT22;18853;45.426;9.206;2022-07-23T09:39:39;34.70;44.70
32394;DHT22;18853;45.426;9.206;2022-07-23T09:42:18;34.60;44.40
32394;DHT22;18853;45.426;9.206;2022-07-23T09:44:48;34.60;44.40
32394;DHT22;18853;45.426;9.206;2022-07-23T09:47:15;34.60;44.50
32394;DHT22;18853;45.426;9.206;2022-07-23T09:49:57;34.50;44.70
32394;DHT22;18853;45.426;9.206;2022-07-23T09:52:33;34.70;44.90
32394;DHT22;18853;45.426;9.206;2022-07-23T09:55:00;34.60;45.70
32394;DHT22;18853;45.426;9.206;2022-07-23T09:57:27;34.60;45.10
32394;DHT22;18853;45.426;9.206;2022-07-23T09:59:53;34.50;44.80
32394;DHT22;18853;45.426;9.206;2022-07-23T10:02:21;34.50;44.80
32394;DHT22;18853;45.426;9.206;2022-07-23T10:04:48;34.60;45.20
32394;DHT22;18853;45.426;9.206;2022-07-23T10:07:13;34.60;45.40
32394;DHT22;18853;45.426;9.206;2022-07-23T10:09:42;34.70;45.00
32394;DHT22;18853;45.426;9.206;2022-07-23T10:12:14;34.70;44.90
32394;DHT22;18853;45.426;9.206;2022-07-23T10:15:08;34.70;45.10
32394;DHT22;18853;45.426;9.206;2022-07-23T10:17:35;34.80;45.20
32394;DHT22;18853;45.426;9.206;2022-07-23T10:20:01;34.80;45.20
32394;DHT22;18853;45.426;9.206;2022-07-23T10:22:30;34.80;45.10
32394;DHT22;18853;45.426;9.206;2022-07-23T10:27:51;34.80;45.10
32394;DHT22;18853;45.426;9.206;2022-07-23T10:30:41;34.80;45.50
32394;DHT22;18853;45.426;9.206;2022-07-23T10:33:17;34.90;45.70
32394;DHT22;18853;45.426;9.206;2022-07-23T10:38:37;34.80;45.70
32394;DHT22;18853;45.426;9.206;2022-07-23T10:41:06;34.90;45.80
32394;DHT22;18853;45.426;9.206;2022-07-23T10:43:32;34.90;45.80
32394;DHT22;18853;45.426;9.206;2022-07-23T10:46:23;34.80;45.80
32394;DHT22;18853;45.426;9.206;2022-07-23T10:49:24;35.00;45.30
32394;DHT22;18853;45.426;9.206;2022-07-23T10:57:26;35.10;45.10
32394;DHT22;18853;45.426;9.206;2022-07-23T11:02:31;35.20;45.40
32394;DHT22;18853;45.426;9.206;2022-07-23T11:32:00;35.60;44.30
32394;DHT22;18853;45.426;9.206;2022-07-23T11:34:38;35.70;44.10
32394;DHT22;18853;45.426;9.206;2022-07-23T11:37:10;35.80;43.40
32394;DHT22;18853;45.426;9.206;2022-07-23T11:39:36;35.70;43.70
32394;DHT22;18853;45.426;9.206;2022-07-23T11:42:03;35.70;44.10
32394;DHT22;18853;45.426;9.206;2022-07-23T11:44:34;35.70;44.20
32394;DHT22;18853;45.426;9.206;2022-07-23T11:47:05;35.90;44.10
32394;DHT22;18853;45.426;9.206;2022-07-23T11:49:32;36.00;43.50
32394;DHT22;18853;45.426;9.206;2022-07-23T11:52:13;35.90;43.60
32394;DHT22;18853;45.426;9.206;2022-07-23T11:54:52;35.80;43.70
32394;DHT22;18853;45.426;9.206;2022-07-23T11:57:21;35.80;43.90
32394;DHT22;18853;45.426;9.206;2022-07-23T11:59:52;35.80;43.70
32394;DHT22;18853;45.426;9.206;2022-07-23T12:02:19;36.00;43.60
32394;DHT22;18853;45.426;9.206;2022-07-23T12:04:47;36.10;43.30
32394;DHT22;18853;45.426;9.206;2022-07-23T12:07:31;36.20;42.60
32394;DHT22;18853;45.426;9.206;2022-07-23T12:12:43;36.60;42.10
32394;DHT22;18853;45.426;9.206;2022-07-23T12:15:12;36.80;41.50
32394;DHT22;18853;45.426;9.206;2022-07-23T12:17:39;37.00;42.20
32394;DHT22;18853;45.426;9.206;2022-07-23T12:20:12;37.20;41.10
32394;DHT22;18853;45.426;9.206;2022-07-23T12:22:41;37.40;40.30
32394;DHT22;18853;45.426;9.206;2022-07-23T12:25:15;37.30;39.90
32394;DHT22;18853;45.426;9.206;2022-07-23T12:27:42;37.40;40.20
32394;DHT22;18853;45.426;9.206;2022-07-23T12:30:21;37.40;39.90
32394;DHT22;18853;45.426;9.206;2022-07-23T12:32:49;37.50;39.80
32394;DHT22;18853;45.426;9.206;2022-07-23T12:35:15;37.30;39.90
32394;DHT22;18853;45.426;9.206;2022-07-23T12:37:43;37.40;40.00
32394;DHT22;18853;45.426;9.206;2022-07-23T12:40:27;37.20;40.20
32394;DHT22;18853;45.426;9.206;2022-07-23T12:43:05;37.20;40.40
32394;DHT22;18853;45.426;9.206;2022-07-23T12:45:45;37.30;41.00
32394;DHT22;18853;45.426;9.206;2022-07-23T12:48:20;37.60;39.60
32394;DHT22;18853;45.426;9.206;2022-07-23T12:51:02;37.70;39.20
32394;DHT22;18853;45.426;9.206;2022-07-23T12:53:32;37.90;38.80
32394;DHT22;18853;45.426;9.206;2022-07-23T12:56:05;38.00;39.10
32394;DHT22;18853;45.426;9.206;2022-07-23T13:01:21;38.00;38.60
32394;DHT22;18853;45.426;9.206;2022-07-23T13:04:10;37.80;39.20
32394;DHT22;18853;45.426;9.206;2022-07-23T13:07:05;38.00;39.00
32394;DHT22;18853;45.426;9.206;2022-07-23T13:09:32;38.00;38.60
32394;DHT22;18853;45.426;9.206;2022-07-23T13:11:58;38.00;39.00
32394;DHT22;18853;45.426;9.206;2022-07-23T13:14:25;38.10;38.70
32394;DHT22;18853;45.426;9.206;2022-07-23T13:16:52;38.10;38.70
32394;DHT22;18853;45.426;9.206;2022-07-23T13:19:19;38.10;38.40
32394;DHT22;18853;45.426;9.206;2022-07-23T13:21:45;38.20;38.40
32394;DHT22;18853;45.426;9.206;2022-07-23T13:24:12;38.20;38.30
32394;DHT22;18853;45.426;9.206;2022-07-23T13:26:38;38.10;38.30
32394;DHT22;18853;45.426;9.206;2022-07-23T13:29:04;38.00;38.40
32394;DHT22;18853;45.426;9.206;2022-07-23T13:31:30;38.00;38.40
32394;DHT22;18853;45.426;9.206;2022-07-23T13:33:56;38.00;38.50
32394;DHT22;18853;45.426;9.206;2022-07-23T13:36:21;38.00;38.20
32394;DHT22;18853;45.426;9.206;2022-07-23T13:38:47;38.20;38.40
32394;DHT22;18853;45.426;9.206;2022-07-23T13:41:12;38.40;38.30
32394;DHT22;18853;45.426;9.206;2022-07-23T13:43:38;38.50;37.70
32394;DHT22;18853;45.426;9.206;2022-07-23T13:46:04;38.40;37.90
32394;DHT22;18853;45.426;9.206;2022-07-23T13:48:30;38.40;37.70
32394;DHT22;18853;45.426;9.206;2022-07-23T13:50:55;38.40;37.70
32394;DHT22;18853;45.426;9.206;2022-07-23T13:53:22;38.60;37.50
32394;DHT22;18853;45.426;9.206;2022-07-23T13:55:50;38.70;37.60
32394;DHT22;18853;45.426;9.206;2022-07-23T13:58:17;38.90;37.30
32394;DHT22;18853;45.426;9.206;2022-07-23T14:00:45;39.10;36.60
32394;DHT22;18853;45.426;9.206;2022-07-23T14:03:11;39.30;36.10
32394;DHT22;18853;45.426;9.206;2022-07-23T14:05:37;39.40;35.80
32394;DHT22;18853;45.426;9.206;2022-07-23T14:08:03;39.40;35.10
32394;DHT22;18853;45.426;9.206;2022-07-23T14:10:29;39.40;35.00
32394;DHT22;18853;45.426;9.206;2022-07-23T14:12:55;39.50;35.40
32394;DHT22;18853;45.426;9.206;2022-07-23T14:15:22;39.60;35.40
32394;DHT22;18853;45.426;9.206;2022-07-23T14:17:47;39.60;35.40
32394;DHT22;18853;45.426;9.206;2022-07-23T14:20:14;39.40;35.20
32394;DHT22;18853;45.426;9.206;2022-07-23T14:22:40;39.40;35.30
32394;DHT22;18853;45.426;9.206;2022-07-23T14:25:07;39.40;35.40
32394;DHT22;18853;45.426;9.206;2022-07-23T14:27:33;39.40;35.50
32394;DHT22;18853;45.426;9.206;2022-07-23T14:29:59;39.60;35.40
32394;DHT22;18853;45.426;9.206;2022-07-23T14:32:25;39.70;35.10
32394;DHT22;18853;45.426;9.206;2022-07-23T14:34:51;39.80;35.70
32394;DHT22;18853;45.426;9.206;2022-07-23T14:37:17;39.90;35.00
32394;DHT22;18853;45.426;9.206;2022-07-23T14:39:44;40.10;34.60
32394;DHT22;18853;45.426;9.206;2022-07-23T14:42:10;40.10;34.50
32394;DHT22;18853;45.426;9.206;2022-07-23T14:44:36;40.10;34.40
32394;DHT22;18853;45.426;9.206;2022-07-23T14:47:04;40.10;34.50
32394;DHT22;18853;45.426;9.206;2022-07-23T14:49:33;39.90;34.90
32394;DHT22;18853;45.426;9.206;2022-07-23T14:51:59;39.90;34.80
32394;DHT22;18853;45.426;9.206;2022-07-23T14:54:26;39.90;34.80
32394;DHT22;18853;45.426;9.206;2022-07-23T14:56:53;39.90;34.90
32394;DHT22;18853;45.426;9.206;2022-07-23T14:59:19;39.90;34.80
32394;DHT22;18853;45.426;9.206;2022-07-23T15:01:45;39.80;35.10
32394;DHT22;18853;45.426;9.206;2022-07-23T15:04:11;39.80;35.10
32394;DHT22;18853;45.426;9.206;2022-07-23T15:06:36;39.80;35.30
32394;DHT22;18853;45.426;9.206;2022-07-23T15:09:04;39.90;35.10
32394;DHT22;18853;45.426;9.206;2022-07-23T15:11:30;40.10;34.80
32394;DHT22;18853;45.426;9.206;2022-07-23T15:13:59;40.20;34.50
32394;DHT22;18853;45.426;9.206;2022-07-23T15:16:25;40.20;34.40
32394;DHT22;18853;45.426;9.206;2022-07-23T15:18:51;40.10;34.60
32394;DHT22;18853;45.426;9.206;2022-07-23T15:21:16;40.00;34.80
32394;DHT22;18853;45.426;9.206;2022-07-23T15:23:42;40.00;34.90
32394;DHT22;18853;45.426;9.206;2022-07-23T15:26:08;40.00;35.00
32394;DHT22;18853;45.426;9.206;2022-07-23T15:28:34;40.00;35.20
32394;DHT22;18853;45.426;9.206;2022-07-23T15:31:00;40.10;35.30
32394;DHT22;18853;45.426;9.206;2022-07-23T15:33:26;39.90;35.10
32394;DHT22;18853;45.426;9.206;2022-07-23T15:35:51;39.90;35.30
32394;DHT22;18853;45.426;9.206;2022-07-23T15:38:20;39.90;35.20
32394;DHT22;18853;45.426;9.206;2022-07-23T15:40:46;39.80;35.10
32394;DHT22;18853;45.426;9.206;2022-07-23T15:43:12;39.70;35.40
32394;DHT22;18853;45.426;9.206;2022-07-23T15:45:39;39.70;35.60
32394;DHT22;18853;45.426;9.206;2022-07-23T15:48:05;39.70;35.30
32394;DHT22;18853;45.426;9.206;2022-07-23T15:50:31;39.70;35.10
32394;DHT22;18853;45.426;9.206;2022-07-23T15:52:56;39.90;35.10
32394;DHT22;18853;45.426;9.206;2022-07-23T15:55:22;40.00;35.00
32394;DHT22;18853;45.426;9.206;2022-07-23T15:57:48;39.90;35.00
32394;DHT22;18853;45.426;9.206;2022-07-23T16:00:14;39.80;35.10
32394;DHT22;18853;45.426;9.206;2022-07-23T16:02:39;39.80;35.10
32394;DHT22;18853;45.426;9.206;2022-07-23T16:05:05;39.80;35.20
32394;DHT22;18853;45.426;9.206;2022-07-23T16:07:31;39.90;35.30
32394;DHT22;18853;45.426;9.206;2022-07-23T16:09:59;40.00;35.10
32394;DHT22;18853;45.426;9.206;2022-07-23T16:12:25;40.00;35.00
32394;DHT22;18853;45.426;9.206;2022-07-23T16:14:50;40.10;35.00
32394;DHT22;18853;45.426;9.206;2022-07-23T16:17:16;40.20;34.70
32394;DHT22;18853;45.426;9.206;2022-07-23T16:19:42;40.20;34.80